• Join FlightAware (Why Join?)
  • Login
  • US Flag 
06:00AM EDT


 

Airport Tracker/Info


-or-


 

Live Flight TrackerFlight Track Log ✈ PDT4429 ✈ 22-Aug-2013 ✈ KCLT - KHXD

Flight Track Log - Related Links

Times and Time Zones

All times are in EDT time to prevent confusion due to time zone crossing. See the PDT4429 flight status page for this flight to view local times or setup timezone preferences in your user account.

Time Position Orientation Groundspeed Altitude Reporting Facility
EDT Latitude Longitude Course Direction KTS MPH feet Rate Location/Type
09:49AM 35.2306 -80.9367 160° South 141 162 1,400  Level Atlanta Center
09:50AM 35.2331 -80.8731 87° East 181 208 3,000 1,200 Climbing Atlanta Center
09:51AM 35.0046 -80.8690 158° South  Level FlightAware Approximate
09:51AM 35.2189 -80.8150 107° East 184 212 4,300  Level Atlanta Center
09:52AM 34.9387 -80.8360 158° South  Level FlightAware Approximate
09:52AM 35.2069 -80.7547 104° East 184 212 5,500  Level Atlanta Center
09:53AM 34.8721 -80.8092 151° Southeast  Level FlightAware Approximate
09:53AM 35.1864 -80.6869 110° East 189 217 6,700  Level Atlanta Center
09:54AM 34.8079 -80.7720 160° South  Level FlightAware Approximate
09:54AM 35.1764 -80.6236 101° East 189 217 7,900  Level Atlanta Center
09:55AM 35.1578 -80.5636 111° Southeast 194 223 9,000 960 Climbing Atlanta Center
09:56AM 35.1106 -80.5833 199° South 178 205 9,900 960 Climbing Atlanta Center
09:57AM 35.0761 -80.6228 223° Southwest 188 216 10,900 900 Climbing Atlanta Center
09:58AM 35.0417 -80.6572 219° Southwest 199 229 11,800 840 Climbing Atlanta Center
09:59AM 35.0031 -80.6992 222° Southwest 194 223 12,600 600 Climbing Atlanta Center
10:00AM 34.9583 -80.7417 218° Southwest 199 229 13,000 180 Climbing Atlanta Center
10:01AM 34.9117 -80.7892 220° Southwest 210 242 13,000 540 Level Atlanta Center
10:03AM 34.7950 -80.7767 175° South 198 228 14,700 840 Climbing Jacksonville Center
10:04AM 34.7425 -80.7550 161° South 203 234 15,600 780 Climbing Jacksonville Center
10:05AM 34.6878 -80.7314 160° South 208 239 16,300 660 Climbing Jacksonville Center
10:06AM 34.6353 -80.7072 159° South 208 239 17,000 600 Climbing Jacksonville Center
10:07AM 34.5828 -80.6833 159° South 201 231 17,600 420 Climbing Jacksonville Center
10:08AM 34.5281 -80.6597 160° South 208 239 17,900 180 Climbing Jacksonville Center
10:09AM 34.4672 -80.6336 161° South 214 246 18,000  Climbing Jacksonville Center
10:10AM 34.4019 -80.6075 162° South 228 262 18,000  Level Jacksonville Center
10:11AM 34.3389 -80.5739 156° South 240 276 18,000  Level Jacksonville Center
10:12AM 34.2756 -80.5406 156° South 250 288 18,000  Level Jacksonville Center
10:13AM 34.2086 -80.5347 176° South 250 288 18,000  Level Jacksonville Center
10:14AM 34.1422 -80.5492 190° South 232 267 18,000  Level Jacksonville Center
10:15AM 34.0778 -80.5583 187° South 238 274 18,000  Level Jacksonville Center
10:16AM 34.0111 -80.5628 183° South 238 274 18,000  Level Jacksonville Center
10:17AM 33.9442 -80.5644 181° South 238 274 18,000  Level Jacksonville Center
10:18AM 33.8775 -80.5686 183° South 238 274 18,000  Level Jacksonville Center
10:19AM 33.8108 -80.5731 183° South 233 268 18,000  Level Jacksonville Center
10:20AM 33.7464 -80.5772 183° South 233 268 18,000  Level Jacksonville Center
10:21AM 33.6817 -80.5839 185° South 233 268 18,000  Level Jacksonville Center
10:22AM 33.6172 -80.5906 185° South 233 268 18,000  Level Jacksonville Center
10:23AM 33.5483 -80.5922 181° South 233 268 18,000  Level Jacksonville Center
10:24AM 33.4817 -80.5989 185° South 233 268 18,000 -300 Level Jacksonville Center
10:25AM 33.4131 -80.6108 188° South 240 276 17,400 -840 Descending Jacksonville Center
10:26AM 33.3381 -80.6178 184° South 257 296 16,400 -1,140 Descending Jacksonville Center
10:27AM 33.2608 -80.6197 181° South 271 312 15,200 -1,200 Descending Jacksonville Center
10:28AM 33.1817 -80.6217 181° South 282 325 14,000 -1,260 Descending Jacksonville Center
10:29AM 33.1022 -80.6261 183° South 287 330 12,700 -1,260 Descending Jacksonville Center
10:30AM 33.0231 -80.6331 184° South 287 330 11,500 -900 Descending Jacksonville Center
10:31AM 32.9481 -80.6400 184° South 287 330 11,000 -300 Descending Jacksonville Center
10:32AM 32.8794 -80.6467 185° South 276 318 11,000 -240 Level Jacksonville Center
10:33AM 32.8083 -80.6508 183° South 260 299 10,600 -1,440 Descending Jacksonville Center
10:34AM 32.7464 -80.6844 205° Southwest 254 292 8,200 -2,340 Descending Jacksonville Center
10:35AM 32.6781 -80.7208 204° Southwest 259 298 6,000 -1,980 Descending Jacksonville Center
10:36AM 32.6139 -80.7419 195° South 255 293 4,300 -1,020 Descending Jacksonville Center
10:37AM 32.5467 -80.7239 167° South 239 275 4,000 -300 Descending Jacksonville Center
10:38AM 32.4922 -80.7103 168° South 239 275 3,800 -840 Descending Jacksonville Center
10:39AM 32.4186 -80.6875 165° South 239 275 2,400 -1,140 Descending Jacksonville Center
10:40AM 32.3664 -80.6717 166° South 229 264 1,600 -840 Descending Jacksonville Center